createdAt,value
2022-11-24T00:01:29.667Z,3.35
2022-11-24T00:03:58.896Z,2.35
2022-11-24T00:06:25.880Z,2.20
2022-11-24T00:08:53.202Z,2.30
2022-11-24T00:11:22.409Z,1.90
2022-11-24T00:13:49.329Z,2.85
2022-11-24T00:16:18.195Z,2.47
2022-11-24T00:18:46.634Z,3.05
2022-11-24T00:21:14.399Z,2.72
2022-11-24T00:23:41.132Z,3.85
2022-11-24T00:26:11.599Z,3.08
2022-11-24T00:28:39.475Z,2.50
2022-11-24T00:31:40.001Z,2.33
2022-11-24T00:34:15.040Z,2.42
2022-11-24T00:36:42.057Z,2.22
2022-11-24T00:39:12.140Z,2.22
2022-11-24T00:41:39.433Z,2.10
2022-11-24T00:44:06.047Z,2.72
2022-11-24T00:46:33.236Z,2.33
2022-11-24T00:49:02.540Z,2.20
2022-11-24T00:51:30.338Z,2.40
2022-11-24T00:53:58.570Z,2.50
2022-11-24T00:56:26.510Z,2.78
2022-11-24T00:58:53.696Z,2.03
2022-11-24T01:01:23.520Z,3.25
2022-11-24T01:03:50.884Z,2.72
2022-11-24T01:06:20.787Z,3.30
2022-11-24T01:08:48.410Z,2.63
2022-11-24T01:11:18.019Z,2.60
2022-11-24T01:13:47.018Z,2.40
2022-11-24T01:16:20.524Z,1.80
2022-11-24T01:18:47.877Z,2.30
2022-11-24T01:21:15.714Z,2.15
2022-11-24T01:23:42.572Z,2.38
2022-11-24T01:26:12.459Z,3.28
2022-11-24T01:28:44.815Z,2.47
2022-11-24T01:31:14.318Z,2.03
2022-11-24T01:33:40.967Z,2.08
2022-11-24T01:36:07.629Z,2.40
2022-11-24T01:38:34.357Z,2.00
2022-11-24T01:41:10.036Z,2.28
2022-11-24T01:43:36.923Z,1.88
2022-11-24T01:46:27.776Z,1.95
2022-11-24T01:49:15.134Z,2.22
2022-11-24T01:52:05.615Z,2.42
2022-11-24T01:54:36.186Z,1.77
2022-11-24T01:57:40.357Z,2.53
2022-11-24T02:00:10.525Z,2.15
2022-11-24T02:02:37.166Z,1.90
2022-11-24T02:05:12.080Z,2.15
2022-11-24T02:07:38.646Z,1.77
2022-11-24T02:10:16.730Z,1.85
2022-11-24T02:12:48.787Z,2.13
2022-11-24T02:15:16.602Z,2.25
2022-11-24T02:17:43.723Z,2.30
2022-11-24T02:20:11.885Z,2.28
2022-11-24T02:22:44.546Z,3.17
2022-11-24T02:25:13.872Z,2.53
2022-11-24T02:27:42.802Z,2.58
2022-11-24T02:30:09.684Z,2.30
2022-11-24T02:32:40.256Z,2.60
2022-11-24T02:35:08.762Z,2.63
2022-11-24T02:37:35.433Z,2.60
2022-11-24T02:40:02.031Z,2.30
2022-11-24T02:42:33.052Z,1.92
2022-11-24T02:45:01.075Z,2.70
2022-11-24T02:47:28.093Z,2.00
2022-11-24T02:49:54.618Z,2.25
2022-11-24T02:52:21.074Z,2.30
2022-11-24T02:54:47.590Z,2.25
2022-11-24T02:57:15.203Z,2.72
2022-11-24T02:59:41.666Z,2.53
2022-11-24T03:02:08.246Z,2.50
2022-11-24T03:04:34.968Z,2.33
2022-11-24T03:07:01.785Z,2.83
2022-11-24T03:09:28.404Z,1.83
2022-11-24T03:11:54.841Z,2.80
2022-11-24T03:14:21.294Z,2.20
2022-11-24T03:16:47.757Z,1.52
2022-11-24T03:19:14.174Z,2.17
2022-11-24T03:21:40.809Z,2.30
2022-11-24T03:24:07.584Z,2.25
2022-11-24T03:26:34.596Z,2.13
2022-11-24T03:29:01.279Z,2.38
2022-11-24T03:31:27.924Z,4.07
2022-11-24T03:33:54.617Z,2.45
2022-11-24T03:36:21.350Z,2.40
2022-11-24T03:38:48.021Z,2.83
2022-11-24T03:41:14.500Z,2.58
2022-11-24T03:43:44.095Z,2.10
2022-11-24T03:46:11.926Z,2.17
2022-11-24T03:48:38.860Z,3.13
2022-11-24T03:51:05.662Z,2.08
2022-11-24T03:53:33.567Z,2.42
2022-11-24T03:56:00.762Z,2.40
2022-11-24T03:58:28.135Z,2.60
2022-11-24T04:00:55.916Z,2.60
2022-11-24T04:03:23.400Z,2.63
2022-11-24T04:05:50.405Z,3.00
2022-11-24T04:08:17.569Z,2.30
2022-11-24T04:10:44.025Z,2.72
2022-11-24T04:13:13.625Z,2.90
2022-11-24T04:15:41.065Z,2.58
2022-11-24T04:18:09.648Z,3.00
2022-11-24T04:20:37.125Z,2.30
2022-11-24T04:23:03.677Z,2.63
2022-11-24T04:25:30.397Z,2.55
2022-11-24T04:27:57.315Z,2.80
2022-11-24T04:30:25.966Z,2.47
2022-11-24T04:32:53.042Z,2.42
2022-11-24T04:35:20.133Z,2.35
2022-11-24T04:37:47.478Z,2.28
2022-11-24T04:40:14.594Z,3.58
2022-11-24T04:42:41.298Z,2.22
2022-11-24T04:45:08.151Z,2.90
2022-11-24T04:47:34.777Z,2.60
2022-11-24T04:50:01.160Z,2.40
2022-11-24T04:52:45.993Z,2.35
2022-11-24T04:55:12.852Z,2.45
2022-11-24T04:57:55.761Z,2.30
2022-11-24T05:00:22.260Z,2.63
2022-11-24T05:02:51.814Z,2.72
2022-11-24T05:05:18.398Z,2.20
2022-11-24T05:07:44.951Z,2.00
2022-11-24T05:10:30.011Z,2.00
2022-11-24T05:12:59.489Z,2.65
2022-11-24T05:15:26.480Z,2.50
2022-11-24T05:17:53.467Z,2.40
2022-11-24T05:20:19.973Z,2.83
2022-11-24T05:22:46.511Z,1.90
2022-11-24T05:25:14.198Z,2.85
2022-11-24T05:27:40.924Z,3.53
2022-11-24T05:30:08.068Z,3.00
2022-11-24T05:32:34.992Z,2.83
2022-11-24T05:35:04.414Z,3.10
2022-11-24T05:37:31.272Z,3.00
2022-11-24T05:39:57.768Z,2.47
2022-11-24T05:42:47.313Z,2.55
2022-11-24T05:45:20.707Z,3.08
2022-11-24T05:47:48.528Z,3.38
2022-11-24T05:50:16.923Z,2.63
2022-11-24T05:52:43.406Z,2.53
2022-11-24T05:55:10.791Z,2.35
2022-11-24T05:57:37.290Z,2.38
2022-11-24T06:00:05.622Z,2.28
2022-11-24T06:02:32.676Z,1.85
2022-11-24T06:04:59.213Z,4.55
2022-11-24T06:07:25.690Z,4.40
2022-11-24T06:09:52.370Z,3.42
2022-11-24T06:12:18.915Z,3.20
2022-11-24T06:14:45.470Z,3.00
2022-11-24T06:17:12.447Z,2.90
2022-11-24T06:19:42.015Z,2.63
2022-11-24T06:22:09.009Z,2.78
2022-11-24T06:24:35.704Z,3.03
2022-11-24T06:27:02.553Z,2.90
2022-11-24T06:29:28.995Z,2.42
2022-11-24T06:31:55.725Z,2.28
2022-11-24T06:34:22.257Z,3.10
2022-11-24T06:36:48.829Z,2.13
2022-11-24T06:39:15.366Z,2.55
2022-11-24T06:41:41.915Z,2.17
2022-11-24T06:44:08.406Z,2.55
2022-11-24T06:46:34.982Z,2.75
2022-11-24T06:49:02.291Z,1.77
2022-11-24T06:51:28.943Z,2.92
2022-11-24T06:53:55.498Z,2.30
2022-11-24T06:56:22.683Z,2.08
2022-11-24T06:58:51.640Z,1.60
2022-11-24T07:01:25.697Z,2.38
2022-11-24T07:03:53.363Z,2.30
2022-11-24T07:06:21.434Z,1.75
2022-11-24T07:08:48.503Z,2.17
2022-11-24T07:11:18.605Z,1.77
2022-11-24T07:13:45.950Z,2.55
2022-11-24T07:16:22.632Z,1.98
2022-11-24T07:18:51.218Z,1.95
2022-11-24T07:21:19.647Z,1.83
2022-11-24T07:23:53.930Z,2.22
2022-11-24T07:26:21.461Z,2.17
2022-11-24T07:28:47.899Z,2.22
2022-11-24T07:31:24.880Z,1.80
2022-11-24T07:33:53.130Z,2.20
2022-11-24T07:36:21.229Z,2.55
2022-11-24T07:38:47.926Z,2.05
2022-11-24T07:41:16.381Z,2.28
2022-11-24T07:43:42.893Z,2.70
2022-11-24T07:46:12.513Z,2.05
2022-11-24T07:48:39.465Z,2.45
2022-11-24T07:51:06.888Z,2.97
2022-11-24T07:53:36.947Z,2.65
2022-11-24T07:56:05.431Z,2.22
2022-11-24T07:58:34.851Z,2.30
2022-11-24T08:01:16.637Z,2.90
2022-11-24T08:03:43.492Z,2.28
2022-11-24T08:06:31.728Z,2.35
2022-11-24T08:08:57.326Z,2.70
2022-11-24T08:11:25.507Z,2.70
2022-11-24T08:13:51.900Z,1.88
2022-11-24T08:16:19.750Z,2.25
2022-11-24T08:18:51.279Z,1.85
2022-11-24T08:21:17.875Z,1.60
2022-11-24T08:23:44.310Z,1.63
2022-11-24T08:26:17.867Z,2.00
2022-11-24T08:28:45.481Z,2.28
2022-11-24T08:31:18.572Z,1.90
2022-11-24T08:33:48.401Z,1.50
2022-11-24T08:36:17.556Z,1.67
2022-11-24T08:38:48.930Z,1.90
2022-11-24T08:41:17.239Z,1.60
2022-11-24T08:43:44.145Z,2.22
2022-11-24T08:46:13.190Z,2.33
2022-11-24T08:48:40.086Z,2.10
2022-11-24T08:51:12.682Z,1.77
2022-11-24T08:53:39.963Z,2.00
2022-11-24T08:56:07.766Z,1.88
2022-11-24T08:58:36.316Z,1.52
2022-11-24T09:01:14.077Z,1.42
2022-11-24T09:03:48.534Z,1.35
2022-11-24T09:06:18.464Z,1.65
2022-11-24T09:08:45.035Z,1.10
2022-11-24T09:11:13.659Z,1.30
2022-11-24T09:13:40.467Z,0.93
2022-11-24T09:16:10.129Z,1.35
2022-11-24T09:18:37.102Z,1.58
2022-11-24T09:21:22.323Z,1.70
2022-11-24T09:23:50.726Z,1.73
2022-11-24T09:26:23.974Z,1.23
2022-11-24T09:28:54.345Z,1.30
2022-11-24T09:31:22.753Z,1.33
2022-11-24T09:33:49.342Z,1.20
2022-11-24T09:36:15.688Z,1.40
2022-11-24T09:38:43.386Z,1.50
2022-11-24T09:41:22.155Z,1.52
2022-11-24T09:44:20.099Z,1.50
2022-11-24T09:47:00.956Z,1.48
2022-11-24T09:49:53.216Z,2.20
2022-11-24T09:52:32.560Z,1.40
2022-11-24T09:55:03.019Z,1.35
2022-11-24T09:57:37.434Z,1.10
2022-11-24T10:00:14.255Z,1.50
2022-11-24T10:02:40.668Z,1.20
2022-11-24T10:05:07.834Z,1.85
2022-11-24T10:07:42.841Z,1.55
2022-11-24T10:10:24.178Z,1.67
2022-11-24T10:13:13.127Z,1.73
2022-11-24T10:15:53.375Z,1.67
2022-11-24T10:18:38.356Z,1.88
2022-11-24T10:21:24.865Z,2.33
2022-11-24T10:24:16.583Z,2.05
2022-11-24T10:26:54.737Z,1.65
2022-11-24T10:29:28.661Z,2.20
2022-11-24T10:31:56.687Z,2.25
2022-11-24T10:34:49.862Z,1.90
2022-11-24T10:37:42.224Z,1.58
2022-11-24T10:40:40.560Z,1.42
2022-11-24T10:43:00.771Z,1.40
2022-11-24T10:45:28.548Z,1.67
2022-11-24T10:47:55.076Z,1.33
2022-11-24T10:50:24.721Z,1.70
2022-11-24T10:53:19.138Z,1.30
2022-11-24T10:55:55.106Z,1.50
2022-11-24T10:58:37.268Z,1.63
2022-11-24T11:01:13.860Z,1.50
2022-11-24T11:03:58.298Z,1.92
2022-11-24T11:06:30.114Z,1.52
2022-11-24T11:09:09.192Z,2.22
2022-11-24T11:11:38.690Z,1.42
2022-11-24T11:14:07.128Z,1.50
2022-11-24T11:16:37.364Z,1.20
2022-11-24T11:19:33.026Z,1.80
2022-11-24T11:22:11.444Z,1.42
2022-11-24T11:24:40.071Z,1.30
2022-11-24T11:27:15.546Z,1.50
2022-11-24T11:35:15.023Z,1.67
2022-11-24T11:37:42.038Z,1.67
2022-11-24T11:40:16.099Z,1.73
2022-11-24T11:43:02.307Z,1.50
2022-11-24T11:45:37.700Z,1.50
2022-11-24T11:48:04.222Z,1.42
2022-11-24T11:54:16.473Z,2.00
2022-11-24T11:56:49.528Z,1.63
2022-11-24T11:59:55.014Z,1.35
2022-11-24T12:02:33.450Z,1.27
2022-11-24T12:05:05.171Z,1.77
2022-11-24T12:07:49.635Z,1.35
2022-11-24T12:10:40.919Z,1.50
2022-11-24T12:13:33.310Z,1.50
2022-11-24T12:16:13.439Z,1.42
2022-11-24T12:18:58.807Z,1.77
2022-11-24T12:21:34.331Z,2.15
2022-11-24T12:26:56.651Z,2.00
2022-11-24T12:29:57.366Z,2.90
2022-11-24T12:32:48.876Z,1.20
2022-11-24T12:35:20.553Z,2.08
2022-11-24T12:38:12.893Z,1.60
2022-11-24T12:44:21.977Z,1.60
2022-11-24T12:47:04.016Z,1.35
2022-11-24T12:49:33.829Z,1.58
2022-11-24T12:52:16.641Z,1.63
2022-11-24T12:54:43.009Z,1.63
2022-11-24T12:57:12.489Z,1.40
2022-11-24T13:00:03.732Z,1.50
2022-11-24T13:02:49.145Z,3.15
2022-11-24T13:05:48.836Z,2.67
2022-11-24T13:08:16.024Z,1.70
2022-11-24T13:10:58.407Z,1.30
2022-11-24T13:13:50.143Z,1.73
2022-11-24T13:16:59.091Z,1.60
2022-11-24T13:19:17.443Z,1.63
2022-11-24T13:21:45.371Z,1.50
2022-11-24T13:24:18.929Z,1.42
2022-11-24T13:26:50.569Z,1.70
2022-11-24T13:29:34.051Z,1.63
2022-11-24T13:32:03.132Z,1.48
2022-11-24T13:34:39.002Z,1.58
2022-11-24T13:37:34.449Z,1.70
2022-11-24T13:40:22.460Z,1.67
2022-11-24T13:42:58.668Z,1.75
2022-11-24T13:45:41.452Z,2.00
2022-11-24T13:48:28.201Z,1.90
2022-11-24T13:50:54.695Z,1.90
2022-11-24T13:53:39.866Z,1.33
2022-11-24T13:56:12.579Z,1.85
2022-11-24T13:58:47.728Z,1.33
2022-11-24T14:04:28.584Z,1.63
2022-11-24T14:06:48.461Z,1.80
2022-11-24T14:09:23.814Z,1.25
2022-11-24T14:12:03.623Z,1.35
2022-11-24T14:14:30.135Z,1.42
2022-11-24T14:17:28.060Z,1.88
2022-11-24T14:19:57.194Z,1.25
2022-11-24T14:22:43.334Z,2.05
2022-11-24T14:25:30.119Z,1.85
2022-11-24T14:27:57.166Z,1.70
2022-11-24T14:30:25.232Z,1.38
2022-11-24T14:32:56.822Z,1.50
2022-11-24T14:35:27.991Z,1.42
2022-11-24T14:37:54.571Z,1.40
2022-11-24T14:40:48.839Z,1.45
2022-11-24T14:43:27.665Z,1.60
2022-11-24T14:45:55.886Z,1.50
2022-11-24T14:48:28.257Z,1.33
2022-11-24T14:51:06.260Z,1.40
2022-11-24T14:53:34.361Z,1.98
2022-11-24T14:56:21.682Z,1.50
2022-11-24T14:58:48.495Z,1.65
2022-11-24T15:01:34.845Z,1.77
2022-11-24T15:07:23.928Z,1.90
2022-11-24T15:10:00.045Z,1.65
2022-11-24T15:12:41.913Z,2.03
2022-11-24T15:15:14.347Z,1.42
2022-11-24T15:17:56.698Z,1.92
2022-11-24T15:20:32.711Z,2.03
2022-11-24T15:23:21.527Z,1.50
2022-11-24T15:25:48.431Z,1.48
2022-11-24T15:28:14.907Z,1.83
2022-11-24T15:30:41.699Z,1.80
2022-11-24T15:33:16.766Z,1.95
2022-11-24T15:35:44.153Z,1.90
2022-11-24T15:38:10.850Z,2.05
2022-11-24T15:40:38.767Z,1.70
2022-11-24T15:43:31.301Z,2.78
2022-11-24T15:45:58.808Z,3.10
2022-11-24T15:48:25.490Z,3.70
2022-11-24T15:50:52.851Z,3.00
2022-11-24T15:53:32.747Z,3.05
2022-11-24T15:56:01.280Z,2.25
2022-11-24T15:58:27.893Z,2.22
2022-11-24T16:00:54.387Z,2.40
2022-11-24T16:06:19.102Z,3.35
2022-11-24T16:08:50.531Z,2.60
2022-11-24T16:11:23.263Z,6.05
2022-11-24T16:13:53.425Z,9.23
2022-11-24T16:16:21.461Z,12.88
2022-11-24T16:18:48.139Z,12.82
2022-11-24T16:21:14.719Z,6.20
2022-11-24T16:23:41.155Z,3.42
2022-11-24T16:26:07.758Z,3.03
2022-11-24T16:28:34.668Z,2.97
2022-11-24T16:31:01.383Z,2.90
2022-11-24T16:33:31.043Z,2.80
2022-11-24T16:35:57.490Z,4.10
2022-11-24T16:38:24.223Z,7.28
2022-11-24T16:40:56.095Z,3.08
2022-11-24T16:43:22.982Z,2.83
2022-11-24T16:46:24.864Z,2.10
2022-11-24T16:48:55.040Z,2.85
2022-11-24T16:51:23.370Z,7.03
2022-11-24T16:53:58.399Z,16.52
2022-11-24T16:56:25.156Z,6.68
2022-11-24T16:58:51.979Z,8.95
2022-11-24T17:01:18.489Z,4.65
2022-11-24T17:03:45.000Z,7.47
2022-11-24T17:06:15.663Z,7.38
2022-11-24T17:08:43.298Z,5.80
2022-11-24T17:11:15.155Z,3.58
2022-11-24T17:13:42.644Z,3.25
2022-11-24T17:16:12.123Z,4.15
2022-11-24T17:18:39.807Z,3.95
2022-11-24T17:21:09.978Z,2.75
2022-11-24T17:23:37.319Z,2.30
2022-11-24T17:26:06.902Z,2.83
2022-11-24T17:28:34.650Z,2.35
2022-11-24T17:31:08.886Z,2.38
2022-11-24T17:33:35.950Z,3.83
2022-11-24T17:36:04.792Z,5.05
2022-11-24T17:38:31.165Z,3.40
2022-11-24T17:40:58.164Z,3.78
2022-11-24T17:43:24.712Z,3.40
2022-11-24T17:46:00.990Z,3.15
2022-11-24T17:48:28.335Z,3.15
2022-11-24T17:51:03.228Z,3.15
2022-11-24T17:53:30.139Z,2.50
2022-11-24T17:56:00.780Z,3.40
2022-11-24T17:58:28.673Z,2.80
2022-11-24T18:00:55.567Z,3.90
2022-11-24T18:03:22.611Z,3.33
2022-11-24T18:05:50.098Z,6.85
2022-11-24T18:08:16.946Z,4.88
2022-11-24T18:10:43.484Z,8.18
2022-11-24T18:13:22.179Z,5.63
2022-11-24T18:16:00.289Z,4.10
2022-11-24T18:18:26.917Z,3.53
2022-11-24T18:21:01.259Z,2.60
2022-11-24T18:23:28.496Z,2.92
2022-11-24T18:26:00.061Z,2.92
2022-11-24T18:28:27.495Z,2.65
2022-11-24T18:31:00.809Z,2.22
2022-11-24T18:33:27.301Z,2.17
2022-11-24T18:36:01.417Z,2.78
2022-11-24T18:38:28.196Z,2.95
2022-11-24T18:40:59.260Z,2.45
2022-11-24T18:43:27.653Z,2.92
2022-11-24T18:45:54.398Z,2.40
2022-11-24T18:48:22.643Z,1.95
2022-11-24T18:50:53.603Z,2.42
2022-11-24T18:53:21.296Z,2.83
2022-11-24T18:56:05.011Z,2.55
2022-11-24T18:58:33.090Z,3.33
2022-11-24T19:01:08.270Z,8.70
2022-11-24T19:03:48.326Z,6.15
2022-11-24T19:06:21.386Z,6.78
2022-11-24T19:08:48.740Z,5.53
2022-11-24T19:11:33.865Z,6.03
2022-11-24T19:14:01.837Z,5.60
2022-11-24T19:16:28.972Z,5.32
2022-11-24T19:18:59.824Z,3.97
2022-11-24T19:21:27.385Z,4.13
2022-11-24T19:23:53.876Z,4.70
2022-11-24T19:26:20.356Z,2.25
2022-11-24T19:28:47.109Z,2.58
2022-11-24T19:31:15.236Z,2.25
2022-11-24T19:33:42.087Z,3.10
2022-11-24T19:36:17.527Z,3.05
2022-11-24T19:38:52.125Z,2.53
2022-11-24T19:41:19.605Z,2.60
2022-11-24T19:43:47.093Z,2.70
2022-11-24T19:46:16.132Z,2.13
2022-11-24T19:48:49.941Z,3.30
2022-11-24T19:51:18.793Z,3.30
2022-11-24T19:53:46.139Z,2.83
2022-11-24T19:56:14.736Z,2.70
2022-11-24T19:58:41.769Z,5.22
2022-11-24T20:01:40.375Z,3.05
2022-11-24T20:04:09.432Z,3.50
2022-11-24T20:06:44.442Z,5.47
2022-11-24T20:11:39.715Z,4.18
2022-11-24T20:14:07.485Z,4.15
2022-11-24T20:16:34.691Z,4.30
2022-11-24T20:19:07.380Z,2.88
2022-11-24T20:21:35.419Z,3.00
2022-11-24T20:24:05.098Z,2.95
2022-11-24T20:26:34.602Z,2.50
2022-11-24T20:29:01.933Z,2.38
2022-11-24T20:31:34.250Z,2.83
2022-11-24T20:34:01.872Z,2.53
2022-11-24T20:36:30.012Z,2.33
2022-11-24T20:38:59.276Z,2.35
2022-11-24T20:41:29.026Z,2.53
2022-11-24T20:43:58.016Z,2.40
2022-11-24T20:46:26.379Z,2.40
2022-11-24T20:48:54.817Z,2.25
2022-11-24T20:51:24.642Z,3.10
2022-11-24T20:53:53.539Z,2.85
2022-11-24T20:56:23.214Z,2.55
2022-11-24T20:58:50.553Z,3.90
2022-11-24T21:01:22.905Z,3.75
2022-11-24T21:03:58.378Z,5.45
2022-11-24T21:06:31.460Z,5.75
2022-11-24T21:09:03.499Z,5.43
2022-11-24T21:11:31.643Z,4.55
2022-11-24T21:13:58.410Z,4.90
2022-11-24T21:16:36.540Z,3.35
2022-11-24T21:19:06.056Z,3.40
2022-11-24T21:21:35.193Z,3.30
2022-11-24T21:24:03.164Z,2.83
2022-11-24T21:26:29.807Z,3.30
2022-11-24T21:28:57.251Z,3.22
2022-11-24T21:31:23.896Z,2.85
2022-11-24T21:33:52.745Z,2.47
2022-11-24T21:36:22.346Z,3.00
2022-11-24T21:38:54.482Z,2.80
2022-11-24T21:41:22.407Z,2.90
2022-11-24T21:43:49.907Z,3.13
2022-11-24T21:46:16.807Z,2.55
2022-11-24T21:48:43.617Z,2.97
2022-11-24T21:51:18.102Z,2.67
2022-11-24T21:53:45.742Z,2.95
2022-11-24T21:56:17.697Z,2.53
2022-11-24T21:58:48.185Z,2.72
2022-11-24T22:01:16.143Z,2.55
2022-11-24T22:03:43.337Z,3.72
2022-11-24T22:06:10.170Z,3.45
2022-11-24T22:08:36.714Z,7.38
2022-11-24T22:11:05.560Z,6.95
2022-11-24T22:13:32.434Z,4.38
2022-11-24T22:16:00.963Z,3.78
2022-11-24T22:18:31.203Z,3.03
2022-11-24T22:20:57.555Z,3.00
2022-11-24T22:23:25.198Z,3.13
2022-11-24T22:25:51.709Z,2.30
2022-11-24T22:28:18.257Z,2.88
2022-11-24T22:30:44.882Z,2.67
2022-11-24T22:33:11.217Z,3.85
2022-11-24T22:35:37.773Z,2.42
2022-11-24T22:38:04.302Z,3.70
2022-11-24T22:40:30.830Z,3.33
2022-11-24T22:42:58.149Z,3.35
2022-11-24T22:45:24.669Z,2.97
2022-11-24T22:47:54.944Z,3.20
2022-11-24T22:50:21.535Z,2.35
2022-11-24T22:52:49.843Z,3.45
2022-11-24T22:55:16.418Z,3.10
2022-11-24T22:57:47.407Z,3.35
2022-11-24T23:00:16.232Z,3.10
2022-11-24T23:02:42.772Z,3.22
2022-11-24T23:05:09.671Z,4.90
2022-11-24T23:07:36.231Z,3.53
2022-11-24T23:10:03.054Z,3.78
2022-11-24T23:12:29.484Z,2.67
2022-11-24T23:14:55.856Z,2.97
2022-11-24T23:17:22.412Z,3.58
2022-11-24T23:19:48.850Z,3.85
2022-11-24T23:22:15.282Z,2.95
2022-11-24T23:24:41.807Z,3.17
2022-11-24T23:27:08.235Z,4.40
2022-11-24T23:29:34.869Z,5.22
2022-11-24T23:32:01.234Z,3.83
2022-11-24T23:34:27.833Z,5.47
2022-11-24T23:36:54.238Z,4.95
2022-11-24T23:39:20.773Z,5.55
2022-11-24T23:41:47.118Z,3.65
2022-11-24T23:44:13.603Z,4.18
2022-11-24T23:46:40.121Z,3.78
2022-11-24T23:49:06.570Z,3.97
2022-11-24T23:51:33.928Z,4.53
2022-11-24T23:54:01.017Z,3.40
2022-11-24T23:56:32.282Z,3.33
2022-11-24T23:59:01.241Z,3.65
